sensor_id;sensor_type;location;lat;lon;timestamp;P1;durP1;ratioP1;P2;durP2;ratioP2
5805;SDS011;2929;50.810;8.342;2022-12-07T00:02:06;26.13;;;14.43;;
5805;SDS011;2929;50.810;8.342;2022-12-07T00:04:33;28.27;;;15.87;;
5805;SDS011;2929;50.810;8.342;2022-12-07T00:07:01;31.10;;;15.80;;
5805;SDS011;2929;50.810;8.342;2022-12-07T00:09:29;31.60;;;15.27;;
5805;SDS011;2929;50.810;8.342;2022-12-07T00:11:56;31.90;;;14.90;;
5805;SDS011;2929;50.810;8.342;2022-12-07T00:14:23;33.13;;;15.90;;
5805;SDS011;2929;50.810;8.342;2022-12-07T00:16:50;37.43;;;17.00;;
5805;SDS011;2929;50.810;8.342;2022-12-07T00:19:18;35.53;;;16.43;;
5805;SDS011;2929;50.810;8.342;2022-12-07T00:21:45;35.83;;;17.00;;
5805;SDS011;2929;50.810;8.342;2022-12-07T00:24:13;34.00;;;17.07;;
5805;SDS011;2929;50.810;8.342;2022-12-07T00:26:41;33.20;;;16.47;;
5805;SDS011;2929;50.810;8.342;2022-12-07T00:29:12;32.40;;;17.10;;
5805;SDS011;2929;50.810;8.342;2022-12-07T00:31:41;28.10;;;14.77;;
5805;SDS011;2929;50.810;8.342;2022-12-07T00:34:11;34.53;;;15.40;;
5805;SDS011;2929;50.810;8.342;2022-12-07T00:36:39;27.40;;;13.80;;
5805;SDS011;2929;50.810;8.342;2022-12-07T00:39:07;28.17;;;15.27;;
5805;SDS011;2929;50.810;8.342;2022-12-07T00:41:35;31.70;;;15.03;;
5805;SDS011;2929;50.810;8.342;2022-12-07T00:44:02;28.00;;;13.93;;
5805;SDS011;2929;50.810;8.342;2022-12-07T00:46:30;30.40;;;14.50;;
5805;SDS011;2929;50.810;8.342;2022-12-07T00:48:57;30.00;;;14.73;;
5805;SDS011;2929;50.810;8.342;2022-12-07T00:51:24;31.97;;;16.07;;
5805;SDS011;2929;50.810;8.342;2022-12-07T00:53:51;30.70;;;15.03;;
5805;SDS011;2929;50.810;8.342;2022-12-07T00:56:20;37.27;;;15.40;;
5805;SDS011;2929;50.810;8.342;2022-12-07T00:58:53;27.20;;;14.03;;
5805;SDS011;2929;50.810;8.342;2022-12-07T01:01:22;30.70;;;15.07;;
5805;SDS011;2929;50.810;8.342;2022-12-07T01:03:50;27.17;;;12.40;;
5805;SDS011;2929;50.810;8.342;2022-12-07T01:06:17;23.27;;;13.07;;
5805;SDS011;2929;50.810;8.342;2022-12-07T01:08:46;23.47;;;12.63;;
5805;SDS011;2929;50.810;8.342;2022-12-07T01:11:13;28.67;;;14.30;;
5805;SDS011;2929;50.810;8.342;2022-12-07T01:13:42;25.30;;;14.20;;
5805;SDS011;2929;50.810;8.342;2022-12-07T01:16:12;23.60;;;12.93;;
5805;SDS011;2929;50.810;8.342;2022-12-07T01:18:41;23.27;;;14.00;;
5805;SDS011;2929;50.810;8.342;2022-12-07T01:21:09;35.20;;;14.80;;
5805;SDS011;2929;50.810;8.342;2022-12-07T01:23:38;23.67;;;13.03;;
5805;SDS011;2929;50.810;8.342;2022-12-07T01:26:06;29.37;;;13.97;;
5805;SDS011;2929;50.810;8.342;2022-12-07T01:28:36;33.00;;;15.27;;
5805;SDS011;2929;50.810;8.342;2022-12-07T01:31:04;28.40;;;13.27;;
5805;SDS011;2929;50.810;8.342;2022-12-07T01:33:35;25.77;;;13.40;;
5805;SDS011;2929;50.810;8.342;2022-12-07T01:36:02;25.17;;;13.20;;
5805;SDS011;2929;50.810;8.342;2022-12-07T01:38:31;26.13;;;12.10;;
5805;SDS011;2929;50.810;8.342;2022-12-07T01:40:59;23.63;;;12.97;;
5805;SDS011;2929;50.810;8.342;2022-12-07T01:43:28;26.00;;;13.50;;
5805;SDS011;2929;50.810;8.342;2022-12-07T01:45:56;29.33;;;13.33;;
5805;SDS011;2929;50.810;8.342;2022-12-07T01:48:25;20.03;;;12.00;;
5805;SDS011;2929;50.810;8.342;2022-12-07T01:50:56;24.27;;;12.83;;
5805;SDS011;2929;50.810;8.342;2022-12-07T01:53:28;25.57;;;13.67;;
5805;SDS011;2929;50.810;8.342;2022-12-07T01:55:56;24.93;;;14.10;;
5805;SDS011;2929;50.810;8.342;2022-12-07T01:58:25;28.27;;;14.30;;
5805;SDS011;2929;50.810;8.342;2022-12-07T02:00:52;24.40;;;13.40;;
5805;SDS011;2929;50.810;8.342;2022-12-07T02:03:22;30.23;;;13.73;;
5805;SDS011;2929;50.810;8.342;2022-12-07T02:05:53;23.33;;;12.90;;
5805;SDS011;2929;50.810;8.342;2022-12-07T02:08:24;24.50;;;11.90;;
5805;SDS011;2929;50.810;8.342;2022-12-07T02:10:51;29.40;;;13.83;;
5805;SDS011;2929;50.810;8.342;2022-12-07T02:13:24;25.23;;;13.47;;
5805;SDS011;2929;50.810;8.342;2022-12-07T02:16:00;24.47;;;13.00;;
5805;SDS011;2929;50.810;8.342;2022-12-07T02:18:41;25.63;;;12.80;;
5805;SDS011;2929;50.810;8.342;2022-12-07T02:21:20;21.17;;;11.00;;
5805;SDS011;2929;50.810;8.342;2022-12-07T02:24:07;23.90;;;12.30;;
5805;SDS011;2929;50.810;8.342;2022-12-07T02:30:03;22.90;;;11.60;;
5805;SDS011;2929;50.810;8.342;2022-12-07T02:32:37;22.77;;;11.00;;
5805;SDS011;2929;50.810;8.342;2022-12-07T02:35:13;20.67;;;10.70;;
5805;SDS011;2929;50.810;8.342;2022-12-07T02:37:48;19.10;;;10.27;;
5805;SDS011;2929;50.810;8.342;2022-12-07T02:40:22;25.70;;;10.97;;
5805;SDS011;2929;50.810;8.342;2022-12-07T02:42:55;20.97;;;11.67;;
5805;SDS011;2929;50.810;8.342;2022-12-07T02:45:29;17.93;;;10.83;;
5805;SDS011;2929;50.810;8.342;2022-12-07T02:47:58;22.10;;;12.70;;
5805;SDS011;2929;50.810;8.342;2022-12-07T02:50:27;21.97;;;11.87;;
5805;SDS011;2929;50.810;8.342;2022-12-07T02:52:54;23.73;;;12.17;;
5805;SDS011;2929;50.810;8.342;2022-12-07T02:55:23;22.40;;;12.27;;
5805;SDS011;2929;50.810;8.342;2022-12-07T02:58:01;23.00;;;12.70;;
5805;SDS011;2929;50.810;8.342;2022-12-07T03:00:44;25.90;;;13.93;;
5805;SDS011;2929;50.810;8.342;2022-12-07T03:03:18;22.20;;;11.50;;
5805;SDS011;2929;50.810;8.342;2022-12-07T03:05:52;23.73;;;13.43;;
5805;SDS011;2929;50.810;8.342;2022-12-07T03:08:31;27.43;;;13.07;;
5805;SDS011;2929;50.810;8.342;2022-12-07T03:11:06;19.80;;;10.50;;
5805;SDS011;2929;50.810;8.342;2022-12-07T03:13:36;22.47;;;11.60;;
5805;SDS011;2929;50.810;8.342;2022-12-07T03:16:11;21.70;;;12.27;;
5805;SDS011;2929;50.810;8.342;2022-12-07T03:18:43;15.60;;;9.90;;
5805;SDS011;2929;50.810;8.342;2022-12-07T03:21:14;17.67;;;8.47;;
5805;SDS011;2929;50.810;8.342;2022-12-07T03:23:45;14.23;;;8.10;;
5805;SDS011;2929;50.810;8.342;2022-12-07T03:26:16;13.53;;;8.17;;
5805;SDS011;2929;50.810;8.342;2022-12-07T03:28:47;19.50;;;10.70;;
5805;SDS011;2929;50.810;8.342;2022-12-07T03:31:21;16.17;;;9.03;;
5805;SDS011;2929;50.810;8.342;2022-12-07T03:33:53;12.73;;;8.10;;
5805;SDS011;2929;50.810;8.342;2022-12-07T03:36:28;10.77;;;6.93;;
5805;SDS011;2929;50.810;8.342;2022-12-07T03:39:03;14.13;;;8.90;;
5805;SDS011;2929;50.810;8.342;2022-12-07T03:41:44;17.17;;;10.03;;
5805;SDS011;2929;50.810;8.342;2022-12-07T03:44:12;14.97;;;9.00;;
5805;SDS011;2929;50.810;8.342;2022-12-07T03:46:43;13.60;;;8.63;;
5805;SDS011;2929;50.810;8.342;2022-12-07T03:49:18;13.60;;;8.40;;
5805;SDS011;2929;50.810;8.342;2022-12-07T03:51:51;16.67;;;10.20;;
5805;SDS011;2929;50.810;8.342;2022-12-07T03:54:26;15.17;;;8.80;;
5805;SDS011;2929;50.810;8.342;2022-12-07T03:56:56;14.80;;;8.60;;
5805;SDS011;2929;50.810;8.342;2022-12-07T03:59:25;18.40;;;10.97;;
5805;SDS011;2929;50.810;8.342;2022-12-07T04:01:54;19.00;;;10.63;;
5805;SDS011;2929;50.810;8.342;2022-12-07T04:04:24;21.00;;;11.80;;
5805;SDS011;2929;50.810;8.342;2022-12-07T04:06:51;23.30;;;11.83;;
5805;SDS011;2929;50.810;8.342;2022-12-07T04:09:18;20.73;;;11.43;;
5805;SDS011;2929;50.810;8.342;2022-12-07T04:11:46;20.63;;;9.40;;
5805;SDS011;2929;50.810;8.342;2022-12-07T04:14:13;17.87;;;8.70;;
5805;SDS011;2929;50.810;8.342;2022-12-07T04:16:46;15.97;;;9.40;;
5805;SDS011;2929;50.810;8.342;2022-12-07T04:19:15;18.07;;;10.80;;
5805;SDS011;2929;50.810;8.342;2022-12-07T04:21:43;23.00;;;11.20;;
5805;SDS011;2929;50.810;8.342;2022-12-07T04:24:11;22.33;;;12.43;;
5805;SDS011;2929;50.810;8.342;2022-12-07T04:26:39;18.50;;;11.33;;
5805;SDS011;2929;50.810;8.342;2022-12-07T04:29:06;18.23;;;10.70;;
5805;SDS011;2929;50.810;8.342;2022-12-07T04:31:33;21.43;;;10.70;;
5805;SDS011;2929;50.810;8.342;2022-12-07T04:34:01;14.83;;;9.67;;
5805;SDS011;2929;50.810;8.342;2022-12-07T04:36:29;14.20;;;8.97;;
5805;SDS011;2929;50.810;8.342;2022-12-07T04:38:57;13.90;;;8.10;;
5805;SDS011;2929;50.810;8.342;2022-12-07T04:41:25;13.90;;;8.63;;
5805;SDS011;2929;50.810;8.342;2022-12-07T04:43:53;12.53;;;7.57;;
5805;SDS011;2929;50.810;8.342;2022-12-07T04:46:21;11.13;;;6.60;;
5805;SDS011;2929;50.810;8.342;2022-12-07T04:48:49;9.10;;;6.53;;
5805;SDS011;2929;50.810;8.342;2022-12-07T04:51:18;10.97;;;6.20;;
5805;SDS011;2929;50.810;8.342;2022-12-07T04:53:49;12.10;;;7.43;;
5805;SDS011;2929;50.810;8.342;2022-12-07T04:56:16;12.93;;;6.67;;
5805;SDS011;2929;50.810;8.342;2022-12-07T04:58:44;10.93;;;7.17;;
5805;SDS011;2929;50.810;8.342;2022-12-07T05:01:12;9.00;;;5.90;;
5805;SDS011;2929;50.810;8.342;2022-12-07T05:03:40;9.77;;;6.80;;
5805;SDS011;2929;50.810;8.342;2022-12-07T05:06:07;12.23;;;7.50;;
5805;SDS011;2929;50.810;8.342;2022-12-07T05:08:35;11.13;;;6.93;;
5805;SDS011;2929;50.810;8.342;2022-12-07T05:11:04;14.17;;;8.20;;
5805;SDS011;2929;50.810;8.342;2022-12-07T05:13:32;12.40;;;7.93;;
5805;SDS011;2929;50.810;8.342;2022-12-07T05:15:59;13.70;;;8.97;;
5805;SDS011;2929;50.810;8.342;2022-12-07T05:18:26;13.03;;;7.90;;
5805;SDS011;2929;50.810;8.342;2022-12-07T05:20:54;16.47;;;9.53;;
5805;SDS011;2929;50.810;8.342;2022-12-07T05:23:21;19.10;;;9.53;;
5805;SDS011;2929;50.810;8.342;2022-12-07T05:25:48;19.07;;;9.33;;
5805;SDS011;2929;50.810;8.342;2022-12-07T05:28:16;15.80;;;9.63;;
5805;SDS011;2929;50.810;8.342;2022-12-07T05:30:43;17.27;;;9.73;;
5805;SDS011;2929;50.810;8.342;2022-12-07T05:33:10;23.60;;;12.90;;
5805;SDS011;2929;50.810;8.342;2022-12-07T05:35:38;21.37;;;10.80;;
5805;SDS011;2929;50.810;8.342;2022-12-07T05:38:05;19.63;;;10.20;;
5805;SDS011;2929;50.810;8.342;2022-12-07T05:40:32;14.50;;;8.13;;
5805;SDS011;2929;50.810;8.342;2022-12-07T05:42:59;11.73;;;7.60;;
5805;SDS011;2929;50.810;8.342;2022-12-07T05:45:28;12.10;;;8.30;;
5805;SDS011;2929;50.810;8.342;2022-12-07T05:47:55;11.50;;;7.90;;
5805;SDS011;2929;50.810;8.342;2022-12-07T05:50:22;16.30;;;9.03;;
5805;SDS011;2929;50.810;8.342;2022-12-07T05:52:59;13.00;;;8.27;;
5805;SDS011;2929;50.810;8.342;2022-12-07T05:55:26;11.77;;;6.87;;
5805;SDS011;2929;50.810;8.342;2022-12-07T05:57:53;10.93;;;7.07;;
5805;SDS011;2929;50.810;8.342;2022-12-07T06:00:39;17.50;;;8.80;;
5805;SDS011;2929;50.810;8.342;2022-12-07T06:03:06;12.80;;;7.90;;
5805;SDS011;2929;50.810;8.342;2022-12-07T06:05:33;19.40;;;8.63;;
5805;SDS011;2929;50.810;8.342;2022-12-07T06:08:00;19.53;;;7.77;;
5805;SDS011;2929;50.810;8.342;2022-12-07T06:10:28;12.40;;;6.23;;
5805;SDS011;2929;50.810;8.342;2022-12-07T06:12:55;16.40;;;6.87;;
5805;SDS011;2929;50.810;8.342;2022-12-07T06:15:21;10.20;;;5.87;;
5805;SDS011;2929;50.810;8.342;2022-12-07T06:17:49;7.93;;;4.90;;
5805;SDS011;2929;50.810;8.342;2022-12-07T06:20:17;10.13;;;6.07;;
5805;SDS011;2929;50.810;8.342;2022-12-07T06:22:44;11.60;;;6.83;;
5805;SDS011;2929;50.810;8.342;2022-12-07T06:25:11;15.70;;;6.07;;
5805;SDS011;2929;50.810;8.342;2022-12-07T06:27:38;15.50;;;6.10;;
5805;SDS011;2929;50.810;8.342;2022-12-07T06:30:06;14.47;;;7.40;;
5805;SDS011;2929;50.810;8.342;2022-12-07T06:32:33;16.63;;;7.27;;
5805;SDS011;2929;50.810;8.342;2022-12-07T06:35:03;15.40;;;7.83;;
5805;SDS011;2929;50.810;8.342;2022-12-07T06:37:31;15.43;;;7.60;;
5805;SDS011;2929;50.810;8.342;2022-12-07T06:39:59;16.47;;;7.63;;
5805;SDS011;2929;50.810;8.342;2022-12-07T06:42:26;12.63;;;7.97;;
5805;SDS011;2929;50.810;8.342;2022-12-07T06:44:53;15.87;;;8.37;;
5805;SDS011;2929;50.810;8.342;2022-12-07T06:47:20;12.23;;;7.50;;
5805;SDS011;2929;50.810;8.342;2022-12-07T06:49:47;17.60;;;7.80;;
5805;SDS011;2929;50.810;8.342;2022-12-07T06:52:15;17.27;;;7.97;;
5805;SDS011;2929;50.810;8.342;2022-12-07T06:54:42;13.63;;;8.93;;
5805;SDS011;2929;50.810;8.342;2022-12-07T06:57:10;17.93;;;8.30;;
5805;SDS011;2929;50.810;8.342;2022-12-07T06:59:37;21.73;;;8.50;;
5805;SDS011;2929;50.810;8.342;2022-12-07T07:02:04;14.50;;;8.00;;
5805;SDS011;2929;50.810;8.342;2022-12-07T07:04:31;16.23;;;7.80;;
5805;SDS011;2929;50.810;8.342;2022-12-07T07:06:58;21.37;;;8.33;;
5805;SDS011;2929;50.810;8.342;2022-12-07T07:09:27;17.53;;;9.30;;
5805;SDS011;2929;50.810;8.342;2022-12-07T07:11:54;20.83;;;8.53;;
5805;SDS011;2929;50.810;8.342;2022-12-07T07:14:21;16.97;;;9.23;;
5805;SDS011;2929;50.810;8.342;2022-12-07T07:16:48;21.13;;;8.80;;
5805;SDS011;2929;50.810;8.342;2022-12-07T07:19:15;20.27;;;10.03;;
5805;SDS011;2929;50.810;8.342;2022-12-07T07:21:42;22.33;;;9.90;;
5805;SDS011;2929;50.810;8.342;2022-12-07T07:24:09;18.00;;;8.83;;
5805;SDS011;2929;50.810;8.342;2022-12-07T07:26:38;18.17;;;9.33;;
5805;SDS011;2929;50.810;8.342;2022-12-07T07:29:05;28.13;;;9.97;;
5805;SDS011;2929;50.810;8.342;2022-12-07T07:31:32;20.67;;;8.90;;
5805;SDS011;2929;50.810;8.342;2022-12-07T07:34:00;20.10;;;10.70;;
5805;SDS011;2929;50.810;8.342;2022-12-07T07:36:27;18.07;;;9.40;;
5805;SDS011;2929;50.810;8.342;2022-12-07T07:38:54;18.10;;;9.50;;
5805;SDS011;2929;50.810;8.342;2022-12-07T07:41:22;23.13;;;8.83;;
5805;SDS011;2929;50.810;8.342;2022-12-07T07:43:50;18.00;;;10.40;;
5805;SDS011;2929;50.810;8.342;2022-12-07T07:46:17;23.83;;;10.23;;
5805;SDS011;2929;50.810;8.342;2022-12-07T07:48:44;23.00;;;10.17;;
5805;SDS011;2929;50.810;8.342;2022-12-07T07:51:11;21.67;;;9.77;;
5805;SDS011;2929;50.810;8.342;2022-12-07T07:53:38;18.97;;;10.60;;
5805;SDS011;2929;50.810;8.342;2022-12-07T07:56:05;21.93;;;10.30;;
5805;SDS011;2929;50.810;8.342;2022-12-07T07:58:33;23.57;;;10.37;;
5805;SDS011;2929;50.810;8.342;2022-12-07T08:01:04;24.10;;;10.67;;
5805;SDS011;2929;50.810;8.342;2022-12-07T08:03:33;16.37;;;9.17;;
5805;SDS011;2929;50.810;8.342;2022-12-07T08:06:01;18.47;;;10.27;;
5805;SDS011;2929;50.810;8.342;2022-12-07T08:08:29;21.23;;;10.00;;
5805;SDS011;2929;50.810;8.342;2022-12-07T08:10:56;17.90;;;9.97;;
5805;SDS011;2929;50.810;8.342;2022-12-07T08:13:25;22.43;;;9.87;;
5805;SDS011;2929;50.810;8.342;2022-12-07T08:15:53;18.90;;;10.17;;
5805;SDS011;2929;50.810;8.342;2022-12-07T08:18:21;17.43;;;9.60;;
5805;SDS011;2929;50.810;8.342;2022-12-07T08:20:48;16.60;;;8.43;;
5805;SDS011;2929;50.810;8.342;2022-12-07T08:23:15;18.63;;;9.70;;
5805;SDS011;2929;50.810;8.342;2022-12-07T08:25:43;16.10;;;9.17;;
5805;SDS011;2929;50.810;8.342;2022-12-07T08:28:10;19.20;;;10.30;;
5805;SDS011;2929;50.810;8.342;2022-12-07T08:30:37;14.80;;;8.67;;
5805;SDS011;2929;50.810;8.342;2022-12-07T08:33:04;16.47;;;8.90;;
5805;SDS011;2929;50.810;8.342;2022-12-07T08:35:33;16.90;;;8.70;;
5805;SDS011;2929;50.810;8.342;2022-12-07T08:38:00;17.00;;;8.57;;
5805;SDS011;2929;50.810;8.342;2022-12-07T08:40:28;14.07;;;8.50;;
5805;SDS011;2929;50.810;8.342;2022-12-07T08:42:56;13.70;;;8.20;;
5805;SDS011;2929;50.810;8.342;2022-12-07T08:45:23;17.13;;;8.70;;
5805;SDS011;2929;50.810;8.342;2022-12-07T08:47:50;15.43;;;7.40;;
5805;SDS011;2929;50.810;8.342;2022-12-07T08:50:21;15.67;;;8.80;;
5805;SDS011;2929;50.810;8.342;2022-12-07T08:52:50;18.20;;;9.53;;
5805;SDS011;2929;50.810;8.342;2022-12-07T08:55:20;21.60;;;8.20;;
5805;SDS011;2929;50.810;8.342;2022-12-07T08:57:47;17.83;;;8.00;;
5805;SDS011;2929;50.810;8.342;2022-12-07T09:00:15;17.23;;;8.00;;
5805;SDS011;2929;50.810;8.342;2022-12-07T09:02:43;15.33;;;7.57;;
5805;SDS011;2929;50.810;8.342;2022-12-07T09:05:10;21.30;;;7.43;;
5805;SDS011;2929;50.810;8.342;2022-12-07T09:07:39;15.50;;;7.80;;
5805;SDS011;2929;50.810;8.342;2022-12-07T09:10:10;13.70;;;7.10;;
5805;SDS011;2929;50.810;8.342;2022-12-07T09:12:37;14.10;;;6.60;;
5805;SDS011;2929;50.810;8.342;2022-12-07T09:15:04;17.00;;;6.50;;
5805;SDS011;2929;50.810;8.342;2022-12-07T09:17:33;9.00;;;5.87;;
5805;SDS011;2929;50.810;8.342;2022-12-07T09:20:01;11.70;;;6.50;;
5805;SDS011;2929;50.810;8.342;2022-12-07T09:22:28;13.77;;;6.40;;
5805;SDS011;2929;50.810;8.342;2022-12-07T09:24:56;8.77;;;6.13;;
5805;SDS011;2929;50.810;8.342;2022-12-07T09:27:25;9.23;;;5.30;;
5805;SDS011;2929;50.810;8.342;2022-12-07T09:29:52;8.70;;;5.40;;
5805;SDS011;2929;50.810;8.342;2022-12-07T09:32:19;10.50;;;5.13;;
5805;SDS011;2929;50.810;8.342;2022-12-07T09:34:46;7.43;;;5.60;;
5805;SDS011;2929;50.810;8.342;2022-12-07T09:37:14;14.30;;;6.37;;
5805;SDS011;2929;50.810;8.342;2022-12-07T09:39:41;10.97;;;5.40;;
5805;SDS011;2929;50.810;8.342;2022-12-07T09:42:08;8.40;;;4.67;;
5805;SDS011;2929;50.810;8.342;2022-12-07T09:44:45;6.43;;;4.37;;
5805;SDS011;2929;50.810;8.342;2022-12-07T09:47:12;11.73;;;4.60;;
5805;SDS011;2929;50.810;8.342;2022-12-07T09:49:39;10.60;;;5.20;;
5805;SDS011;2929;50.810;8.342;2022-12-07T09:52:17;7.23;;;4.87;;
5805;SDS011;2929;50.810;8.342;2022-12-07T09:54:47;8.03;;;5.20;;
5805;SDS011;2929;50.810;8.342;2022-12-07T09:57:15;12.03;;;6.10;;
5805;SDS011;2929;50.810;8.342;2022-12-07T09:59:46;11.83;;;5.20;;
5805;SDS011;2929;50.810;8.342;2022-12-07T10:02:19;9.10;;;5.87;;
5805;SDS011;2929;50.810;8.342;2022-12-07T10:04:54;15.00;;;5.67;;
5805;SDS011;2929;50.810;8.342;2022-12-07T10:07:24;10.30;;;5.30;;
5805;SDS011;2929;50.810;8.342;2022-12-07T10:09:51;8.07;;;4.93;;
5805;SDS011;2929;50.810;8.342;2022-12-07T10:12:18;11.73;;;5.53;;
5805;SDS011;2929;50.810;8.342;2022-12-07T10:14:54;9.47;;;5.37;;
5805;SDS011;2929;50.810;8.342;2022-12-07T10:17:30;8.70;;;5.20;;
5805;SDS011;2929;50.810;8.342;2022-12-07T10:20:14;9.23;;;5.20;;
5805;SDS011;2929;50.810;8.342;2022-12-07T10:22:57;11.90;;;5.80;;
5805;SDS011;2929;50.810;8.342;2022-12-07T10:25:27;15.87;;;6.30;;
5805;SDS011;2929;50.810;8.342;2022-12-07T10:27:58;9.43;;;5.30;;
5805;SDS011;2929;50.810;8.342;2022-12-07T10:30:28;12.10;;;4.30;;
5805;SDS011;2929;50.810;8.342;2022-12-07T10:36:14;7.63;;;5.07;;
5805;SDS011;2929;50.810;8.342;2022-12-07T10:38:46;8.47;;;4.20;;
5805;SDS011;2929;50.810;8.342;2022-12-07T10:41:14;7.00;;;5.37;;
5805;SDS011;2929;50.810;8.342;2022-12-07T10:43:49;5.50;;;4.63;;
5805;SDS011;2929;50.810;8.342;2022-12-07T10:52:21;6.20;;;3.40;;
5805;SDS011;2929;50.810;8.342;2022-12-07T10:55:03;7.40;;;3.63;;
5805;SDS011;2929;50.810;8.342;2022-12-07T10:57:45;4.60;;;3.40;;
5805;SDS011;2929;50.810;8.342;2022-12-07T11:00:23;7.23;;;3.87;;
5805;SDS011;2929;50.810;8.342;2022-12-07T11:03:05;6.63;;;3.17;;
5805;SDS011;2929;50.810;8.342;2022-12-07T11:05:49;7.13;;;3.90;;
5805;SDS011;2929;50.810;8.342;2022-12-07T11:08:27;6.80;;;3.60;;
5805;SDS011;2929;50.810;8.342;2022-12-07T11:11:06;7.47;;;2.90;;
5805;SDS011;2929;50.810;8.342;2022-12-07T11:13:43;9.17;;;3.33;;
5805;SDS011;2929;50.810;8.342;2022-12-07T11:16:23;8.80;;;3.20;;
5805;SDS011;2929;50.810;8.342;2022-12-07T11:19:03;10.17;;;3.07;;
5805;SDS011;2929;50.810;8.342;2022-12-07T11:21:42;5.40;;;3.47;;
5805;SDS011;2929;50.810;8.342;2022-12-07T11:24:16;4.73;;;3.00;;
5805;SDS011;2929;50.810;8.342;2022-12-07T11:26:48;7.60;;;3.03;;
5805;SDS011;2929;50.810;8.342;2022-12-07T11:32:35;5.17;;;2.97;;
5805;SDS011;2929;50.810;8.342;2022-12-07T11:35:17;5.93;;;3.07;;
5805;SDS011;2929;50.810;8.342;2022-12-07T11:37:51;7.10;;;3.73;;
5805;SDS011;2929;50.810;8.342;2022-12-07T11:40:24;9.87;;;3.37;;
5805;SDS011;2929;50.810;8.342;2022-12-07T11:42:56;17.30;;;4.37;;
5805;SDS011;2929;50.810;8.342;2022-12-07T11:45:26;7.23;;;3.53;;
5805;SDS011;2929;50.810;8.342;2022-12-07T11:47:55;6.30;;;3.53;;
5805;SDS011;2929;50.810;8.342;2022-12-07T11:50:30;9.17;;;3.60;;
5805;SDS011;2929;50.810;8.342;2022-12-07T11:53:03;8.20;;;3.30;;
5805;SDS011;2929;50.810;8.342;2022-12-07T11:55:40;8.80;;;3.70;;
5805;SDS011;2929;50.810;8.342;2022-12-07T11:58:15;10.73;;;3.90;;
5805;SDS011;2929;50.810;8.342;2022-12-07T12:01:04;9.07;;;4.30;;
5805;SDS011;2929;50.810;8.342;2022-12-07T12:03:42;12.53;;;4.23;;
5805;SDS011;2929;50.810;8.342;2022-12-07T12:06:13;8.60;;;4.20;;
5805;SDS011;2929;50.810;8.342;2022-12-07T12:08:42;11.57;;;3.70;;
5805;SDS011;2929;50.810;8.342;2022-12-07T12:11:15;9.40;;;3.83;;
5805;SDS011;2929;50.810;8.342;2022-12-07T12:14:00;10.43;;;3.80;;
5805;SDS011;2929;50.810;8.342;2022-12-07T12:16:59;7.27;;;3.50;;
5805;SDS011;2929;50.810;8.342;2022-12-07T12:19:45;11.50;;;4.50;;
5805;SDS011;2929;50.810;8.342;2022-12-07T12:22:29;6.90;;;3.47;;
5805;SDS011;2929;50.810;8.342;2022-12-07T12:25:04;6.80;;;4.30;;
5805;SDS011;2929;50.810;8.342;2022-12-07T12:27:34;10.60;;;4.33;;
5805;SDS011;2929;50.810;8.342;2022-12-07T12:30:05;15.33;;;4.07;;
5805;SDS011;2929;50.810;8.342;2022-12-07T12:32:51;10.67;;;3.90;;
5805;SDS011;2929;50.810;8.342;2022-12-07T12:35:22;10.67;;;4.37;;
5805;SDS011;2929;50.810;8.342;2022-12-07T12:37:57;10.27;;;5.10;;
5805;SDS011;2929;50.810;8.342;2022-12-07T12:40:52;11.50;;;4.60;;
5805;SDS011;2929;50.810;8.342;2022-12-07T12:55:21;7.93;;;3.20;;
5805;SDS011;2929;50.810;8.342;2022-12-07T12:58:28;8.20;;;2.53;;
5805;SDS011;2929;50.810;8.342;2022-12-07T13:04:23;6.43;;;2.37;;
5805;SDS011;2929;50.810;8.342;2022-12-07T13:10:24;7.00;;;2.10;;
5805;SDS011;2929;50.810;8.342;2022-12-07T13:13:03;4.97;;;2.20;;
5805;SDS011;2929;50.810;8.342;2022-12-07T13:15:51;7.20;;;2.77;;
5805;SDS011;2929;50.810;8.342;2022-12-07T13:18:23;5.07;;;2.60;;
5805;SDS011;2929;50.810;8.342;2022-12-07T13:20:53;7.90;;;2.37;;
5805;SDS011;2929;50.810;8.342;2022-12-07T13:23:25;4.97;;;2.47;;
5805;SDS011;2929;50.810;8.342;2022-12-07T13:26:01;9.80;;;3.70;;
5805;SDS011;2929;50.810;8.342;2022-12-07T13:28:42;6.93;;;3.30;;
5805;SDS011;2929;50.810;8.342;2022-12-07T13:31:12;21.90;;;6.63;;
5805;SDS011;2929;50.810;8.342;2022-12-07T13:33:53;5.53;;;3.60;;
5805;SDS011;2929;50.810;8.342;2022-12-07T13:36:24;8.43;;;3.00;;
5805;SDS011;2929;50.810;8.342;2022-12-07T13:38:54;6.47;;;3.10;;
5805;SDS011;2929;50.810;8.342;2022-12-07T13:41:24;7.87;;;3.60;;
5805;SDS011;2929;50.810;8.342;2022-12-07T13:43:53;6.30;;;3.40;;
5805;SDS011;2929;50.810;8.342;2022-12-07T13:46:31;4.70;;;2.63;;
5805;SDS011;2929;50.810;8.342;2022-12-07T13:49:17;6.00;;;2.80;;
5805;SDS011;2929;50.810;8.342;2022-12-07T13:51:46;7.63;;;3.63;;
5805;SDS011;2929;50.810;8.342;2022-12-07T13:54:14;4.10;;;3.03;;
5805;SDS011;2929;50.810;8.342;2022-12-07T13:56:46;4.73;;;3.10;;
5805;SDS011;2929;50.810;8.342;2022-12-07T13:59:17;7.53;;;3.90;;
5805;SDS011;2929;50.810;8.342;2022-12-07T14:01:47;7.97;;;4.80;;
5805;SDS011;2929;50.810;8.342;2022-12-07T14:04:16;6.23;;;2.50;;
5805;SDS011;2929;50.810;8.342;2022-12-07T14:06:59;7.80;;;4.80;;
5805;SDS011;2929;50.810;8.342;2022-12-07T14:09:28;7.87;;;3.00;;
5805;SDS011;2929;50.810;8.342;2022-12-07T14:11:57;9.77;;;3.67;;
5805;SDS011;2929;50.810;8.342;2022-12-07T14:14:25;8.30;;;3.30;;
5805;SDS011;2929;50.810;8.342;2022-12-07T14:16:56;7.80;;;3.23;;
5805;SDS011;2929;50.810;8.342;2022-12-07T14:19:42;4.27;;;2.90;;
5805;SDS011;2929;50.810;8.342;2022-12-07T14:22:18;7.70;;;3.57;;
5805;SDS011;2929;50.810;8.342;2022-12-07T14:24:48;6.57;;;3.20;;
5805;SDS011;2929;50.810;8.342;2022-12-07T14:27:18;12.77;;;4.40;;
5805;SDS011;2929;50.810;8.342;2022-12-07T14:29:47;6.80;;;3.40;;
5805;SDS011;2929;50.810;8.342;2022-12-07T14:32:22;3.73;;;3.20;;
5805;SDS011;2929;50.810;8.342;2022-12-07T14:34:55;6.53;;;3.67;;
5805;SDS011;2929;50.810;8.342;2022-12-07T14:37:23;7.90;;;3.63;;
5805;SDS011;2929;50.810;8.342;2022-12-07T14:39:51;15.37;;;4.37;;
5805;SDS011;2929;50.810;8.342;2022-12-07T14:42:20;6.93;;;3.83;;
5805;SDS011;2929;50.810;8.342;2022-12-07T14:44:48;11.90;;;4.93;;
5805;SDS011;2929;50.810;8.342;2022-12-07T14:47:15;6.27;;;3.37;;
5805;SDS011;2929;50.810;8.342;2022-12-07T14:49:42;5.43;;;3.63;;
5805;SDS011;2929;50.810;8.342;2022-12-07T14:52:11;7.00;;;3.90;;
5805;SDS011;2929;50.810;8.342;2022-12-07T14:54:41;5.47;;;3.60;;
5805;SDS011;2929;50.810;8.342;2022-12-07T14:57:08;8.30;;;3.60;;
5805;SDS011;2929;50.810;8.342;2022-12-07T14:59:38;8.30;;;3.90;;
5805;SDS011;2929;50.810;8.342;2022-12-07T15:02:05;11.77;;;4.60;;
5805;SDS011;2929;50.810;8.342;2022-12-07T15:04:33;6.50;;;4.40;;
5805;SDS011;2929;50.810;8.342;2022-12-07T15:07:01;10.30;;;3.50;;
5805;SDS011;2929;50.810;8.342;2022-12-07T15:09:30;6.03;;;3.93;;
5805;SDS011;2929;50.810;8.342;2022-12-07T15:11:57;6.90;;;3.20;;
5805;SDS011;2929;50.810;8.342;2022-12-07T15:14:24;8.73;;;3.80;;
5805;SDS011;2929;50.810;8.342;2022-12-07T15:16:53;5.83;;;2.80;;
5805;SDS011;2929;50.810;8.342;2022-12-07T15:19:20;12.70;;;4.17;;
5805;SDS011;2929;50.810;8.342;2022-12-07T15:21:51;7.77;;;4.30;;
5805;SDS011;2929;50.810;8.342;2022-12-07T15:24:18;7.53;;;4.17;;
5805;SDS011;2929;50.810;8.342;2022-12-07T15:26:46;9.57;;;3.57;;
5805;SDS011;2929;50.810;8.342;2022-12-07T15:29:14;7.27;;;3.57;;
5805;SDS011;2929;50.810;8.342;2022-12-07T15:31:42;7.10;;;3.70;;
5805;SDS011;2929;50.810;8.342;2022-12-07T15:34:12;5.90;;;3.80;;
5805;SDS011;2929;50.810;8.342;2022-12-07T15:36:39;10.70;;;3.70;;
5805;SDS011;2929;50.810;8.342;2022-12-07T15:39:07;10.00;;;3.30;;
5805;SDS011;2929;50.810;8.342;2022-12-07T15:41:35;9.10;;;4.00;;
5805;SDS011;2929;50.810;8.342;2022-12-07T15:44:03;5.73;;;3.47;;
5805;SDS011;2929;50.810;8.342;2022-12-07T15:46:48;6.07;;;3.23;;
5805;SDS011;2929;50.810;8.342;2022-12-07T15:49:17;11.27;;;3.97;;
5805;SDS011;2929;50.810;8.342;2022-12-07T15:51:46;5.20;;;3.23;;
5805;SDS011;2929;50.810;8.342;2022-12-07T15:54:16;8.87;;;4.17;;
5805;SDS011;2929;50.810;8.342;2022-12-07T15:56:49;6.37;;;3.57;;
5805;SDS011;2929;50.810;8.342;2022-12-07T15:59:17;7.47;;;3.40;;